createdAt,value
2022-09-02T00:02:25.122Z,15.90
2022-09-02T00:04:52.162Z,15.90
2022-09-02T00:07:19.211Z,15.90
2022-09-02T00:09:46.065Z,15.90
2022-09-02T00:12:13.053Z,15.90
2022-09-02T00:14:40.273Z,15.90
2022-09-02T00:17:07.149Z,15.90
2022-09-02T00:19:34.703Z,15.90
2022-09-02T00:22:02.721Z,15.90
2022-09-02T00:24:30.188Z,15.90
2022-09-02T00:26:57.147Z,15.90
2022-09-02T00:29:26.841Z,15.90
2022-09-02T00:31:55.449Z,15.90
2022-09-02T00:34:22.915Z,15.80
2022-09-02T00:36:49.835Z,15.80
2022-09-02T00:39:17.236Z,15.80
2022-09-02T00:41:44.846Z,15.90
2022-09-02T00:44:14.861Z,15.90
2022-09-02T00:46:42.136Z,15.90
2022-09-02T00:49:25.448Z,15.80
2022-09-02T00:52:02.629Z,15.80
2022-09-02T00:54:32.575Z,15.90
2022-09-02T00:57:02.609Z,15.90
2022-09-02T00:59:46.954Z,15.80
2022-09-02T01:02:14.041Z,15.90
2022-09-02T01:04:43.152Z,15.80
2022-09-02T01:07:11.410Z,15.80
2022-09-02T01:09:39.332Z,15.90
2022-09-02T01:12:07.131Z,15.90
2022-09-02T01:14:35.169Z,15.90
2022-09-02T01:17:03.216Z,15.80
2022-09-02T01:19:39.500Z,15.80
2022-09-02T01:22:16.408Z,15.90
2022-09-02T01:24:43.413Z,15.90
2022-09-02T01:27:14.142Z,15.90
2022-09-02T01:29:41.136Z,15.90
2022-09-02T01:32:08.142Z,15.90
2022-09-02T01:34:35.247Z,15.90
2022-09-02T01:37:02.255Z,15.80
2022-09-02T01:39:29.349Z,15.90
2022-09-02T01:41:56.493Z,15.80
2022-09-02T01:44:25.379Z,15.80
2022-09-02T01:46:52.357Z,15.80
2022-09-02T01:49:19.790Z,15.80
2022-09-02T01:51:47.039Z,15.80
2022-09-02T01:54:14.153Z,15.80
2022-09-02T01:56:42.939Z,15.80
2022-09-02T01:59:11.890Z,15.70
2022-09-02T02:01:39.092Z,15.80
2022-09-02T02:04:09.224Z,15.70
2022-09-02T02:06:42.923Z,15.70
2022-09-02T02:09:11.388Z,15.70
2022-09-02T02:11:39.542Z,15.70
2022-09-02T02:14:06.611Z,15.70
2022-09-02T02:16:33.604Z,15.70
2022-09-02T02:19:00.741Z,15.70
2022-09-02T02:21:28.020Z,15.60
2022-09-02T02:23:55.111Z,15.70
2022-09-02T02:26:22.025Z,15.70
2022-09-02T02:28:49.457Z,15.60
2022-09-02T02:31:16.685Z,15.60
2022-09-02T02:33:43.691Z,15.60
2022-09-02T02:36:10.980Z,15.60
2022-09-02T02:38:39.668Z,15.60
2022-09-02T02:41:07.964Z,15.60
2022-09-02T02:43:35.703Z,15.50
2022-09-02T02:46:03.322Z,15.50
2022-09-02T02:48:30.827Z,15.50
2022-09-02T02:50:57.717Z,15.50
2022-09-02T02:53:24.672Z,15.50
2022-09-02T02:55:51.625Z,15.50
2022-09-02T02:58:18.787Z,15.40
2022-09-02T03:00:46.322Z,15.40
2022-09-02T03:03:13.977Z,15.50
2022-09-02T03:05:41.571Z,15.40
2022-09-02T03:08:10.511Z,15.40
2022-09-02T03:10:38.673Z,15.40
2022-09-02T03:13:05.727Z,15.40
2022-09-02T03:15:32.679Z,15.40
2022-09-02T03:17:59.768Z,15.30
2022-09-02T03:20:26.674Z,15.30
2022-09-02T03:22:56.715Z,15.30
2022-09-02T03:25:25.086Z,15.30
2022-09-02T03:27:53.655Z,15.30
2022-09-02T03:30:25.272Z,15.20
2022-09-02T03:33:01.721Z,15.20
2022-09-02T03:35:30.935Z,15.10
2022-09-02T03:37:58.880Z,15.20
2022-09-02T03:40:27.506Z,15.10
2022-09-02T03:43:00.194Z,15.10
2022-09-02T03:45:28.588Z,15.10
2022-09-02T03:47:56.475Z,15.10
2022-09-02T03:50:30.474Z,15.00
2022-09-02T03:52:59.266Z,15.10
2022-09-02T03:55:26.911Z,15.00
2022-09-02T03:57:54.565Z,15.00
2022-09-02T04:00:24.764Z,15.00
2022-09-02T04:02:52.355Z,15.00
2022-09-02T04:05:19.411Z,14.90
2022-09-02T04:07:47.174Z,14.90
2022-09-02T04:10:15.084Z,14.90
2022-09-02T04:12:42.103Z,14.90
2022-09-02T04:15:11.149Z,14.80
2022-09-02T04:17:42.275Z,14.80
2022-09-02T04:20:46.363Z,14.70
2022-09-02T04:23:13.292Z,14.70
2022-09-02T04:25:44.352Z,14.60
2022-09-02T04:28:13.054Z,14.70
2022-09-02T04:30:41.652Z,14.70
2022-09-02T04:33:09.080Z,14.80
2022-09-02T04:35:40.554Z,14.70
2022-09-02T04:38:07.722Z,14.70
2022-09-02T04:40:34.715Z,14.80
2022-09-02T04:43:01.667Z,14.80
2022-09-02T04:45:30.008Z,14.80
2022-09-02T04:47:56.985Z,14.90
2022-09-02T04:50:23.959Z,14.90
2022-09-02T04:52:51.120Z,14.90
2022-09-02T04:55:18.175Z,15.00
2022-09-02T04:57:45.075Z,15.00
2022-09-02T05:00:13.026Z,15.10
2022-09-02T05:02:40.644Z,15.10
2022-09-02T05:05:08.233Z,15.10
2022-09-02T05:07:37.663Z,15.20
2022-09-02T05:10:06.372Z,15.20
2022-09-02T05:12:35.330Z,15.50
2022-09-02T05:15:02.674Z,15.70
2022-09-02T05:17:32.648Z,16.00
2022-09-02T05:19:59.806Z,16.20
2022-09-02T05:22:29.437Z,16.50
2022-09-02T05:24:57.070Z,16.60
2022-09-02T05:27:24.329Z,16.70
2022-09-02T05:29:59.601Z,16.80
2022-09-02T05:32:28.054Z,16.90
2022-09-02T05:34:56.251Z,16.90
2022-09-02T05:37:24.641Z,17.00
2022-09-02T05:39:53.108Z,17.20
2022-09-02T05:42:20.690Z,17.20
2022-09-02T05:44:47.850Z,17.30
2022-09-02T05:47:14.782Z,17.40
2022-09-02T05:49:41.810Z,17.40
2022-09-02T05:52:10.340Z,17.40
2022-09-02T05:54:38.897Z,17.40
2022-09-02T05:57:12.917Z,17.40
2022-09-02T05:59:42.405Z,17.60
2022-09-02T06:02:14.211Z,17.90
2022-09-02T06:04:44.078Z,18.20
2022-09-02T06:07:13.553Z,18.40
2022-09-02T06:09:41.762Z,18.50
2022-09-02T06:12:08.897Z,18.70
2022-09-02T06:14:38.081Z,18.90
2022-09-02T06:17:05.924Z,18.80
2022-09-02T06:19:33.947Z,18.90
2022-09-02T06:22:02.370Z,19.10
2022-09-02T06:24:31.166Z,19.50
2022-09-02T06:26:59.492Z,19.80
2022-09-02T06:29:26.867Z,19.70
2022-09-02T06:31:54.475Z,19.60
2022-09-02T06:34:23.990Z,19.80
2022-09-02T06:36:51.252Z,19.90
2022-09-02T06:39:21.800Z,20.00
2022-09-02T06:41:49.253Z,20.00
2022-09-02T06:44:18.563Z,19.90
2022-09-02T06:46:48.901Z,20.00
2022-09-02T06:49:18.748Z,19.80
2022-09-02T06:51:47.981Z,20.40
2022-09-02T06:54:17.730Z,21.00
2022-09-02T06:56:49.641Z,21.00
2022-09-02T06:59:17.733Z,20.50
2022-09-02T07:01:45.480Z,19.60
2022-09-02T07:04:30.949Z,18.70
2022-09-02T07:06:58.816Z,18.50
2022-09-02T07:09:33.744Z,18.60
2022-09-02T07:12:05.171Z,18.40
2022-09-02T07:14:38.032Z,18.30
2022-09-02T07:17:05.983Z,18.30
2022-09-02T07:19:33.151Z,18.10
2022-09-02T07:22:02.672Z,18.20
2022-09-02T07:24:29.736Z,18.20
2022-09-02T07:26:56.707Z,18.20
2022-09-02T07:29:24.064Z,18.20
2022-09-02T07:31:51.032Z,18.40
2022-09-02T07:34:18.852Z,18.40
2022-09-02T07:36:46.402Z,18.50
2022-09-02T07:39:15.601Z,18.70
2022-09-02T07:41:44.219Z,18.80
2022-09-02T07:44:13.060Z,18.70
2022-09-02T07:46:40.798Z,18.80
2022-09-02T07:49:10.660Z,18.90
2022-09-02T07:51:40.508Z,18.90
2022-09-02T07:54:08.788Z,19.00
2022-09-02T07:56:35.819Z,18.90
2022-09-02T07:59:03.837Z,18.70
2022-09-02T08:01:31.055Z,18.90
2022-09-02T08:04:01.456Z,19.10
2022-09-02T08:06:34.524Z,19.10
2022-09-02T08:09:03.988Z,19.30
2022-09-02T08:11:32.752Z,19.60
2022-09-02T08:14:00.711Z,19.90
2022-09-02T08:16:29.138Z,20.10
2022-09-02T08:19:00.987Z,20.30
2022-09-02T08:21:27.891Z,20.30
2022-09-02T08:23:54.879Z,20.10
2022-09-02T08:26:22.247Z,19.90
2022-09-02T08:28:50.407Z,20.00
2022-09-02T08:31:17.403Z,20.20
2022-09-02T08:33:44.926Z,21.10
2022-09-02T08:36:15.004Z,21.60
2022-09-02T08:38:42.848Z,21.20
2022-09-02T08:41:37.466Z,20.80
2022-09-02T08:44:05.704Z,20.60
2022-09-02T08:46:34.231Z,20.30
2022-09-02T08:49:21.333Z,20.10
2022-09-02T08:51:56.298Z,20.00
2022-09-02T08:54:53.643Z,20.00
2022-09-02T08:57:20.609Z,20.00
2022-09-02T08:59:48.939Z,20.00
2022-09-02T09:02:46.626Z,19.90
2022-09-02T09:05:58.080Z,19.90
2022-09-02T09:09:05.869Z,19.90
2022-09-02T09:12:14.768Z,19.90
2022-09-02T09:14:55.025Z,20.10
2022-09-02T09:17:29.269Z,20.30
2022-09-02T09:20:06.665Z,20.60
2022-09-02T09:22:37.854Z,20.90
2022-09-02T09:25:11.640Z,20.70
2022-09-02T09:27:40.164Z,20.70
2022-09-02T09:30:14.293Z,20.70
2022-09-02T09:32:52.516Z,21.00
2022-09-02T09:35:19.738Z,21.40
2022-09-02T09:37:51.856Z,22.10
2022-09-02T09:40:31.458Z,23.10
2022-09-02T09:43:18.551Z,23.70
2022-09-02T09:45:50.011Z,23.60
2022-09-02T09:48:33.856Z,23.90
2022-09-02T09:51:11.160Z,24.20
2022-09-02T09:53:38.871Z,24.50
2022-09-02T09:56:37.809Z,24.00
2022-09-02T09:59:08.972Z,24.30
2022-09-02T10:01:37.088Z,24.20
2022-09-02T10:04:42.768Z,25.50
2022-09-02T10:07:13.506Z,25.80
2022-09-02T10:09:41.393Z,26.00
2022-09-02T10:12:11.612Z,25.70
2022-09-02T10:14:45.765Z,25.80
2022-09-02T10:17:54.242Z,24.90
2022-09-02T10:20:48.530Z,24.90
2022-09-02T10:24:06.977Z,24.50
2022-09-02T10:26:57.177Z,24.40
2022-09-02T10:30:09.091Z,24.50
2022-09-02T10:32:58.827Z,24.50
2022-09-02T10:35:59.573Z,24.20
2022-09-02T10:38:44.789Z,24.70
2022-09-02T10:41:37.210Z,24.30
2022-09-02T10:44:58.786Z,24.50
2022-09-02T10:47:40.316Z,25.10
2022-09-02T10:50:33.795Z,25.20
2022-09-02T10:53:26.369Z,25.20
2022-09-02T10:56:50.871Z,25.60
2022-09-02T10:59:26.639Z,25.30
2022-09-02T11:02:15.985Z,25.50
2022-09-02T11:04:55.021Z,24.70
2022-09-02T11:07:30.545Z,24.70
2022-09-02T11:10:27.959Z,25.20
2022-09-02T11:13:15.690Z,25.60
2022-09-02T11:16:06.266Z,26.40
2022-09-02T11:18:58.800Z,26.30
2022-09-02T11:22:01.632Z,26.30
2022-09-02T11:24:55.511Z,25.90
2022-09-02T11:27:42.627Z,25.80
2022-09-02T11:30:17.547Z,25.60
2022-09-02T11:32:56.416Z,25.50
2022-09-02T11:35:28.565Z,26.00
2022-09-02T11:38:03.169Z,26.20
2022-09-02T11:44:14.654Z,26.30
2022-09-02T11:47:09.178Z,26.20
2022-09-02T11:50:01.975Z,26.20
2022-09-02T11:53:24.576Z,26.20
2022-09-02T11:56:18.415Z,26.20
2022-09-02T11:58:49.619Z,26.10
2022-09-02T12:01:47.717Z,26.20
2022-09-02T12:04:59.246Z,26.30
2022-09-02T12:07:13.825Z,25.70
2022-09-02T12:09:53.399Z,25.40
2022-09-02T12:13:08.121Z,25.30
2022-09-02T12:15:36.455Z,26.10
2022-09-02T12:18:28.611Z,26.50
2022-09-02T12:21:23.138Z,26.10
2022-09-02T12:24:10.117Z,25.90
2022-09-02T12:27:06.082Z,25.90
2022-09-02T12:29:34.068Z,26.30
2022-09-02T12:32:01.104Z,26.30
2022-09-02T12:34:48.343Z,26.70
2022-09-02T12:38:07.494Z,26.40
2022-09-02T12:40:41.241Z,26.20
2022-09-02T12:43:26.211Z,25.80
2022-09-02T12:46:00.354Z,25.60
2022-09-02T12:48:40.668Z,25.20
2022-09-02T12:51:09.246Z,25.30
2022-09-02T12:53:49.214Z,25.50
2022-09-02T12:56:24.141Z,25.30
2022-09-02T12:58:53.637Z,25.10
2022-09-02T13:01:53.373Z,24.90
2022-09-02T13:04:39.193Z,24.80
2022-09-02T13:07:46.871Z,24.90
2022-09-02T13:11:03.374Z,26.10
2022-09-02T13:17:36.043Z,27.40
2022-09-02T13:46:15.978Z,24.70
2022-09-02T13:48:43.252Z,24.80
2022-09-02T13:51:13.983Z,24.90
2022-09-02T13:53:53.626Z,24.90
2022-09-02T13:56:32.006Z,24.70
2022-09-02T13:58:59.061Z,24.40
2022-09-02T14:01:35.368Z,24.30
2022-09-02T14:04:06.430Z,24.20
2022-09-02T14:06:41.165Z,24.20
2022-09-02T14:09:19.412Z,24.20
2022-09-02T14:11:48.093Z,24.10
2022-09-02T14:14:17.217Z,24.20
2022-09-02T14:16:44.242Z,24.40
2022-09-02T14:19:37.796Z,24.50
2022-09-02T14:22:05.881Z,24.60
2022-09-02T14:24:40.349Z,24.40
2022-09-02T14:27:18.529Z,24.40
2022-09-02T14:29:47.702Z,24.30
2022-09-02T14:32:31.300Z,24.20
2022-09-02T14:35:36.761Z,24.50
2022-09-02T14:38:03.767Z,24.70
2022-09-02T14:40:39.536Z,24.60
2022-09-02T14:43:15.308Z,24.80
2022-09-02T14:45:50.108Z,25.00
2022-09-02T14:48:26.593Z,24.90
2022-09-02T14:51:03.165Z,24.50
2022-09-02T14:53:30.774Z,24.40
2022-09-02T14:56:01.038Z,24.30
2022-09-02T14:58:29.361Z,24.10
2022-09-02T15:01:00.011Z,24.00
2022-09-02T15:03:28.555Z,23.90
2022-09-02T15:05:55.783Z,23.90
2022-09-02T15:08:23.572Z,23.90
2022-09-02T15:10:52.605Z,23.90
2022-09-02T15:13:30.387Z,23.90
2022-09-02T15:15:57.900Z,23.70
2022-09-02T15:18:25.175Z,23.70
2022-09-02T15:20:52.354Z,23.70
2022-09-02T15:23:19.400Z,23.60
2022-09-02T15:25:47.338Z,23.60
2022-09-02T15:28:14.409Z,23.80
2022-09-02T15:30:41.405Z,23.80
2022-09-02T15:33:19.792Z,23.80
2022-09-02T15:35:47.564Z,23.90
2022-09-02T15:38:14.872Z,24.00
2022-09-02T15:40:41.889Z,23.90
2022-09-02T15:43:08.950Z,23.90
2022-09-02T15:45:44.524Z,23.80
2022-09-02T15:48:11.560Z,23.90
2022-09-02T15:50:38.405Z,24.00
2022-09-02T15:53:05.410Z,24.10
2022-09-02T15:55:33.241Z,24.00
2022-09-02T15:58:00.639Z,24.00
2022-09-02T16:00:28.561Z,24.00
2022-09-02T16:02:57.249Z,24.00
2022-09-02T16:05:24.586Z,24.00
2022-09-02T16:07:55.209Z,24.10
2022-09-02T16:10:25.426Z,24.20
2022-09-02T16:12:52.300Z,24.20
2022-09-02T16:15:20.267Z,24.20
2022-09-02T16:17:47.134Z,24.10
2022-09-02T16:20:19.145Z,24.10
2022-09-02T16:22:48.690Z,24.00
2022-09-02T16:25:16.051Z,24.00
2022-09-02T16:27:52.172Z,23.90
2022-09-02T16:30:19.637Z,23.90
2022-09-02T16:32:47.720Z,24.00
2022-09-02T16:35:14.828Z,24.00
2022-09-02T16:37:42.494Z,24.00
2022-09-02T16:40:12.280Z,23.90
2022-09-02T16:42:40.273Z,23.90
2022-09-02T16:45:08.294Z,23.80
2022-09-02T16:47:35.678Z,23.70
2022-09-02T16:50:02.753Z,23.70
2022-09-02T16:52:35.405Z,23.60
2022-09-02T16:55:02.627Z,23.60
2022-09-02T16:57:34.114Z,23.50
2022-09-02T17:00:01.386Z,23.50
2022-09-02T17:02:30.314Z,23.40
2022-09-02T17:04:57.692Z,23.30
2022-09-02T17:07:25.008Z,23.30
2022-09-02T17:09:52.042Z,23.20
2022-09-02T17:12:19.112Z,23.10
2022-09-02T17:14:47.337Z,23.10
2022-09-02T17:17:17.133Z,23.00
2022-09-02T17:19:44.181Z,22.90
2022-09-02T17:22:11.083Z,22.90
2022-09-02T17:24:41.961Z,22.80
2022-09-02T17:27:09.041Z,22.80
2022-09-02T17:29:51.341Z,22.70
2022-09-02T17:32:19.464Z,22.60
2022-09-02T17:34:49.533Z,22.50
2022-09-02T17:37:17.301Z,22.50
2022-09-02T17:39:44.715Z,22.50
2022-09-02T17:42:14.064Z,22.40
2022-09-02T17:44:42.639Z,22.40
2022-09-02T17:47:21.776Z,22.40
2022-09-02T17:49:49.821Z,22.40
2022-09-02T17:52:22.705Z,22.30
2022-09-02T17:54:52.401Z,22.30
2022-09-02T17:57:43.183Z,22.30
2022-09-02T18:00:16.176Z,22.20
2022-09-02T18:03:13.258Z,22.20
2022-09-02T18:06:05.149Z,22.20
2022-09-02T18:08:56.467Z,22.10
2022-09-02T18:11:24.174Z,22.00
2022-09-02T18:14:13.755Z,22.00
2022-09-02T18:17:15.380Z,22.00
2022-09-02T18:20:10.596Z,21.90
2022-09-02T18:22:52.437Z,21.80
2022-09-02T18:25:57.190Z,21.80
2022-09-02T18:28:49.026Z,21.70
2022-09-02T18:31:48.156Z,21.60
2022-09-02T18:34:49.949Z,21.60
2022-09-02T18:38:06.624Z,21.60
2022-09-02T18:40:47.925Z,21.50
2022-09-02T18:43:40.914Z,21.50
2022-09-02T18:46:11.835Z,21.40
2022-09-02T18:48:39.522Z,21.40
2022-09-02T18:51:29.162Z,21.40
2022-09-02T18:54:09.555Z,21.40
2022-09-02T18:56:38.986Z,21.30
2022-09-02T18:59:16.401Z,21.30
2022-09-02T19:01:56.466Z,21.30
2022-09-02T19:04:29.445Z,21.20
2022-09-02T19:07:17.157Z,21.20
2022-09-02T19:09:44.288Z,21.20
2022-09-02T19:12:11.778Z,21.10
2022-09-02T19:14:42.750Z,21.10
2022-09-02T19:17:11.167Z,21.00
2022-09-02T19:19:38.855Z,20.90
2022-09-02T19:22:08.722Z,20.90
2022-09-02T19:24:44.993Z,20.80
2022-09-02T19:27:23.802Z,20.80
2022-09-02T19:30:00.392Z,20.90
2022-09-02T19:32:30.851Z,20.80
2022-09-02T19:35:00.497Z,20.80
2022-09-02T19:37:27.515Z,20.70
2022-09-02T19:39:54.773Z,20.80
2022-09-02T19:42:24.103Z,20.80
2022-09-02T19:44:51.364Z,20.80
2022-09-02T19:50:07.631Z,20.70
2022-09-02T19:52:42.027Z,20.70
2022-09-02T19:55:10.859Z,20.60
2022-09-02T19:57:37.805Z,20.60
2022-09-02T20:00:05.895Z,20.60
2022-09-02T20:02:32.964Z,20.50
2022-09-02T20:05:00.010Z,20.50
2022-09-02T20:07:26.940Z,20.40
2022-09-02T20:09:55.360Z,20.40
2022-09-02T20:12:22.598Z,20.20
2022-09-02T20:14:49.483Z,20.20
2022-09-02T20:17:20.670Z,20.10
2022-09-02T20:19:48.293Z,20.10
2022-09-02T20:22:18.173Z,20.00
2022-09-02T20:24:45.238Z,19.90
2022-09-02T20:28:10.541Z,19.90
2022-09-02T20:30:42.712Z,19.80
2022-09-02T20:33:19.934Z,19.70
2022-09-02T20:36:07.541Z,19.60
2022-09-02T20:39:04.041Z,19.50
2022-09-02T20:42:16.970Z,19.40
2022-09-02T20:45:23.608Z,19.30
2022-09-02T20:48:39.912Z,19.20
2022-09-02T20:52:02.543Z,19.20
2022-09-02T21:06:58.238Z,19.10
2022-09-02T21:09:50.501Z,19.00
2022-09-02T21:12:37.253Z,18.90
2022-09-02T21:30:03.000Z,18.50
2022-09-02T21:32:58.418Z,18.40
2022-09-02T21:35:31.378Z,18.30
2022-09-02T21:38:03.326Z,18.30
2022-09-02T21:41:10.721Z,18.30
2022-09-02T21:44:05.209Z,18.20
2022-09-02T21:47:04.103Z,18.10
2022-09-02T21:50:12.091Z,18.10
2022-09-02T21:53:07.489Z,18.00
2022-09-02T21:56:28.742Z,17.90
2022-09-02T21:59:49.316Z,17.90
2022-09-02T22:02:28.680Z,17.90
2022-09-02T22:05:11.510Z,17.90
2022-09-02T22:07:49.238Z,17.80
2022-09-02T22:10:29.415Z,17.80
2022-09-02T22:13:01.290Z,17.80
2022-09-02T22:15:59.260Z,17.80
2022-09-02T22:18:41.321Z,17.60
2022-09-02T22:21:17.218Z,17.60
2022-09-02T22:23:44.260Z,17.60
2022-09-02T22:26:30.370Z,17.60
2022-09-02T22:29:04.749Z,17.60
2022-09-02T22:31:36.029Z,17.50
2022-09-02T22:34:06.771Z,17.50
2022-09-02T22:36:49.802Z,17.50
2022-09-02T22:39:17.777Z,17.40
2022-09-02T22:41:56.195Z,17.40
2022-09-02T22:44:48.412Z,17.40
2022-09-02T22:47:36.166Z,17.40
2022-09-02T22:50:23.681Z,17.30
2022-09-02T22:53:01.088Z,17.30
2022-09-02T22:55:46.441Z,17.30
2022-09-02T22:59:06.317Z,17.30
2022-09-02T23:02:11.965Z,17.30
2022-09-02T23:05:43.095Z,17.20
2022-09-02T23:08:13.129Z,17.20
2022-09-02T23:11:11.995Z,17.20
2022-09-02T23:14:16.167Z,17.10
2022-09-02T23:17:36.442Z,17.20
2022-09-02T23:20:28.386Z,17.10
2022-09-02T23:23:04.439Z,17.00
2022-09-02T23:26:32.000Z,17.00
2022-09-02T23:29:16.603Z,16.90
2022-09-02T23:32:28.335Z,17.00
2022-09-02T23:38:16.108Z,16.90
2022-09-02T23:40:51.775Z,16.80
2022-09-02T23:43:19.203Z,16.80
2022-09-02T23:45:47.606Z,16.80
2022-09-02T23:48:46.322Z,16.80
2022-09-02T23:51:40.657Z,16.70
2022-09-02T23:54:56.668Z,16.60
2022-09-02T23:58:02.168Z,16.60
